sensor_id;sensor_type;location;lat;lon;timestamp;temperature;humidity
13960;DHT22;7052;51.050;3.716;2022-07-29T00:01:28;19.10;88.80
13960;DHT22;7052;51.050;3.716;2022-07-29T00:03:55;19.20;88.90
13960;DHT22;7052;51.050;3.716;2022-07-29T00:06:22;19.20;88.90
13960;DHT22;7052;51.050;3.716;2022-07-29T00:08:49;19.10;88.50
13960;DHT22;7052;51.050;3.716;2022-07-29T00:11:17;19.10;88.40
13960;DHT22;7052;51.050;3.716;2022-07-29T00:13:44;19.10;88.50
13960;DHT22;7052;51.050;3.716;2022-07-29T00:16:11;19.10;88.50
13960;DHT22;7052;51.050;3.716;2022-07-29T00:18:37;19.10;89.10
13960;DHT22;7052;51.050;3.716;2022-07-29T00:21:04;19.10;88.50
13960;DHT22;7052;51.050;3.716;2022-07-29T00:23:31;19.10;88.60
13960;DHT22;7052;51.050;3.716;2022-07-29T00:25:58;19.10;88.70
13960;DHT22;7052;51.050;3.716;2022-07-29T00:28:26;19.00;88.90
13960;DHT22;7052;51.050;3.716;2022-07-29T00:30:53;19.10;89.10
13960;DHT22;7052;51.050;3.716;2022-07-29T00:33:20;19.00;88.80
13960;DHT22;7052;51.050;3.716;2022-07-29T00:35:47;19.00;89.10
13960;DHT22;7052;51.050;3.716;2022-07-29T00:38:14;18.90;89.30
13960;DHT22;7052;51.050;3.716;2022-07-29T00:40:42;18.90;89.40
13960;DHT22;7052;51.050;3.716;2022-07-29T00:43:09;18.90;90.00
13960;DHT22;7052;51.050;3.716;2022-07-29T00:45:38;18.90;90.10
13960;DHT22;7052;51.050;3.716;2022-07-29T00:48:07;18.80;90.20
13960;DHT22;7052;51.050;3.716;2022-07-29T00:50:35;18.80;90.40
13960;DHT22;7052;51.050;3.716;2022-07-29T00:53:03;18.70;90.70
13960;DHT22;7052;51.050;3.716;2022-07-29T00:55:30;18.70;91.00
13960;DHT22;7052;51.050;3.716;2022-07-29T00:57:58;18.60;91.10
13960;DHT22;7052;51.050;3.716;2022-07-29T01:00:28;18.60;91.30
13960;DHT22;7052;51.050;3.716;2022-07-29T01:02:56;18.60;91.50
13960;DHT22;7052;51.050;3.716;2022-07-29T01:05:25;18.50;91.70
13960;DHT22;7052;51.050;3.716;2022-07-29T01:07:54;18.50;91.90
13960;DHT22;7052;51.050;3.716;2022-07-29T01:10:22;18.50;92.10
13960;DHT22;7052;51.050;3.716;2022-07-29T01:12:50;18.50;92.30
13960;DHT22;7052;51.050;3.716;2022-07-29T01:15:18;18.50;92.40
13960;DHT22;7052;51.050;3.716;2022-07-29T01:17:48;18.50;92.40
13960;DHT22;7052;51.050;3.716;2022-07-29T01:20:25;18.40;92.40
13960;DHT22;7052;51.050;3.716;2022-07-29T01:23:40;18.50;92.70
13960;DHT22;7052;51.050;3.716;2022-07-29T01:26:28;18.40;92.70
13960;DHT22;7052;51.050;3.716;2022-07-29T01:29:06;18.40;92.90
13960;DHT22;7052;51.050;3.716;2022-07-29T01:31:42;18.30;93.10
13960;DHT22;7052;51.050;3.716;2022-07-29T01:34:12;18.30;93.40
13960;DHT22;7052;51.050;3.716;2022-07-29T01:36:45;18.20;93.50
13960;DHT22;7052;51.050;3.716;2022-07-29T01:39:18;18.20;93.70
13960;DHT22;7052;51.050;3.716;2022-07-29T01:41:49;18.10;93.80
13960;DHT22;7052;51.050;3.716;2022-07-29T01:44:22;18.10;94.00
13960;DHT22;7052;51.050;3.716;2022-07-29T01:46:54;17.90;94.00
13960;DHT22;7052;51.050;3.716;2022-07-29T01:49:27;18.00;94.20
13960;DHT22;7052;51.050;3.716;2022-07-29T01:51:58;18.00;94.40
13960;DHT22;7052;51.050;3.716;2022-07-29T01:54:30;17.90;94.40
13960;DHT22;7052;51.050;3.716;2022-07-29T01:56:59;17.90;94.50
13960;DHT22;7052;51.050;3.716;2022-07-29T01:59:29;18.00;94.60
13960;DHT22;7052;51.050;3.716;2022-07-29T02:01:58;17.90;94.60
13960;DHT22;7052;51.050;3.716;2022-07-29T02:04:27;17.80;94.60
13960;DHT22;7052;51.050;3.716;2022-07-29T02:06:58;17.90;94.70
13960;DHT22;7052;51.050;3.716;2022-07-29T02:09:26;17.80;94.80
13960;DHT22;7052;51.050;3.716;2022-07-29T02:11:56;17.80;94.90
13960;DHT22;7052;51.050;3.716;2022-07-29T02:14:24;17.80;95.00
13960;DHT22;7052;51.050;3.716;2022-07-29T02:16:56;17.80;95.00
13960;DHT22;7052;51.050;3.716;2022-07-29T02:19:26;17.70;95.10
13960;DHT22;7052;51.050;3.716;2022-07-29T02:21:55;17.70;95.30
13960;DHT22;7052;51.050;3.716;2022-07-29T02:24:23;17.60;95.40
13960;DHT22;7052;51.050;3.716;2022-07-29T02:26:53;17.60;95.50
13960;DHT22;7052;51.050;3.716;2022-07-29T02:29:23;17.60;95.60
13960;DHT22;7052;51.050;3.716;2022-07-29T02:31:50;17.60;95.80
13960;DHT22;7052;51.050;3.716;2022-07-29T02:34:21;17.50;95.90
13960;DHT22;7052;51.050;3.716;2022-07-29T02:36:50;17.50;96.00
13960;DHT22;7052;51.050;3.716;2022-07-29T02:39:18;17.50;96.00
13960;DHT22;7052;51.050;3.716;2022-07-29T02:41:48;17.50;96.10
13960;DHT22;7052;51.050;3.716;2022-07-29T02:44:16;17.50;96.20
13960;DHT22;7052;51.050;3.716;2022-07-29T02:46:48;17.40;96.30
13960;DHT22;7052;51.050;3.716;2022-07-29T02:49:29;17.40;96.40
13960;DHT22;7052;51.050;3.716;2022-07-29T02:52:01;17.40;96.50
13960;DHT22;7052;51.050;3.716;2022-07-29T02:54:32;17.40;96.60
13960;DHT22;7052;51.050;3.716;2022-07-29T02:57:05;17.30;96.70
13960;DHT22;7052;51.050;3.716;2022-07-29T02:59:34;17.40;96.80
13960;DHT22;7052;51.050;3.716;2022-07-29T03:02:04;17.30;97.20
13960;DHT22;7052;51.050;3.716;2022-07-29T03:04:32;17.30;97.10
13960;DHT22;7052;51.050;3.716;2022-07-29T03:07:02;17.30;97.30
13960;DHT22;7052;51.050;3.716;2022-07-29T03:09:30;17.20;97.50
13960;DHT22;7052;51.050;3.716;2022-07-29T03:11:58;17.20;97.70
13960;DHT22;7052;51.050;3.716;2022-07-29T03:14:25;17.20;97.90
13960;DHT22;7052;51.050;3.716;2022-07-29T03:16:53;17.20;98.00
13960;DHT22;7052;51.050;3.716;2022-07-29T03:19:20;17.20;98.10
13960;DHT22;7052;51.050;3.716;2022-07-29T03:21:47;17.20;98.40
13960;DHT22;7052;51.050;3.716;2022-07-29T03:24:32;17.10;98.50
13960;DHT22;7052;51.050;3.716;2022-07-29T03:26:59;17.10;98.70
13960;DHT22;7052;51.050;3.716;2022-07-29T03:29:27;17.20;99.20
13960;DHT22;7052;51.050;3.716;2022-07-29T03:31:54;17.20;99.00
13960;DHT22;7052;51.050;3.716;2022-07-29T03:34:21;17.10;99.10
13960;DHT22;7052;51.050;3.716;2022-07-29T03:36:48;17.10;99.20
13960;DHT22;7052;51.050;3.716;2022-07-29T03:39:18;17.10;99.40
13960;DHT22;7052;51.050;3.716;2022-07-29T03:41:49;17.10;99.50
13960;DHT22;7052;51.050;3.716;2022-07-29T03:44:20;17.00;99.70
13960;DHT22;7052;51.050;3.716;2022-07-29T03:46:50;17.10;99.80
13960;DHT22;7052;51.050;3.716;2022-07-29T03:49:20;17.00;99.90
13960;DHT22;7052;51.050;3.716;2022-07-29T03:51:48;17.00;99.90
13960;DHT22;7052;51.050;3.716;2022-07-29T03:54:15;17.00;99.90
13960;DHT22;7052;51.050;3.716;2022-07-29T03:56:45;17.00;99.90
13960;DHT22;7052;51.050;3.716;2022-07-29T03:59:15;17.00;99.90
13960;DHT22;7052;51.050;3.716;2022-07-29T04:01:43;16.90;99.90
13960;DHT22;7052;51.050;3.716;2022-07-29T04:04:10;16.90;99.90
13960;DHT22;7052;51.050;3.716;2022-07-29T04:06:38;16.90;99.90
13960;DHT22;7052;51.050;3.716;2022-07-29T04:09:06;16.90;99.90
13960;DHT22;7052;51.050;3.716;2022-07-29T04:11:33;16.90;99.90
13960;DHT22;7052;51.050;3.716;2022-07-29T04:14:00;16.90;99.90
13960;DHT22;7052;51.050;3.716;2022-07-29T04:16:28;16.90;99.90
13960;DHT22;7052;51.050;3.716;2022-07-29T04:18:55;16.90;99.90
13960;DHT22;7052;51.050;3.716;2022-07-29T04:21:22;16.90;99.90
13960;DHT22;7052;51.050;3.716;2022-07-29T04:23:49;16.90;99.90
13960;DHT22;7052;51.050;3.716;2022-07-29T04:26:16;16.90;99.90
13960;DHT22;7052;51.050;3.716;2022-07-29T04:28:43;16.90;99.90
13960;DHT22;7052;51.050;3.716;2022-07-29T04:31:11;16.90;99.90
13960;DHT22;7052;51.050;3.716;2022-07-29T04:33:39;16.90;99.90
13960;DHT22;7052;51.050;3.716;2022-07-29T04:36:06;16.90;99.90
13960;DHT22;7052;51.050;3.716;2022-07-29T04:38:33;16.90;99.90
13960;DHT22;7052;51.050;3.716;2022-07-29T04:41:00;16.90;99.90
13960;DHT22;7052;51.050;3.716;2022-07-29T04:43:27;16.90;99.90
13960;DHT22;7052;51.050;3.716;2022-07-29T04:45:53;17.00;99.90
13960;DHT22;7052;51.050;3.716;2022-07-29T04:48:20;17.00;99.90
13960;DHT22;7052;51.050;3.716;2022-07-29T04:50:49;17.00;99.90
13960;DHT22;7052;51.050;3.716;2022-07-29T04:53:17;17.00;99.90
13960;DHT22;7052;51.050;3.716;2022-07-29T04:55:44;17.00;99.90
13960;DHT22;7052;51.050;3.716;2022-07-29T04:58:11;17.00;99.90
13960;DHT22;7052;51.050;3.716;2022-07-29T05:00:39;17.00;99.90
13960;DHT22;7052;51.050;3.716;2022-07-29T05:03:06;17.10;99.90
13960;DHT22;7052;51.050;3.716;2022-07-29T05:05:33;17.10;99.90
13960;DHT22;7052;51.050;3.716;2022-07-29T05:08:01;17.10;99.90
13960;DHT22;7052;51.050;3.716;2022-07-29T05:10:28;17.20;99.90
13960;DHT22;7052;51.050;3.716;2022-07-29T05:12:55;17.20;99.90
13960;DHT22;7052;51.050;3.716;2022-07-29T05:15:22;17.30;99.90
13960;DHT22;7052;51.050;3.716;2022-07-29T05:17:48;17.30;99.90
13960;DHT22;7052;51.050;3.716;2022-07-29T05:20:15;17.30;99.90
13960;DHT22;7052;51.050;3.716;2022-07-29T05:22:43;17.30;99.90
13960;DHT22;7052;51.050;3.716;2022-07-29T05:25:13;17.30;99.90
13960;DHT22;7052;51.050;3.716;2022-07-29T05:27:39;17.40;99.90
13960;DHT22;7052;51.050;3.716;2022-07-29T05:30:07;17.30;99.90
13960;DHT22;7052;51.050;3.716;2022-07-29T05:32:34;17.30;99.90
13960;DHT22;7052;51.050;3.716;2022-07-29T05:35:01;17.30;99.90
13960;DHT22;7052;51.050;3.716;2022-07-29T05:37:29;17.30;99.90
13960;DHT22;7052;51.050;3.716;2022-07-29T05:39:56;17.30;99.90
13960;DHT22;7052;51.050;3.716;2022-07-29T05:42:24;17.40;99.90
13960;DHT22;7052;51.050;3.716;2022-07-29T05:44:52;17.40;99.90
13960;DHT22;7052;51.050;3.716;2022-07-29T05:47:18;17.40;99.90
13960;DHT22;7052;51.050;3.716;2022-07-29T05:49:45;17.50;99.90
13960;DHT22;7052;51.050;3.716;2022-07-29T05:52:12;17.50;99.90
13960;DHT22;7052;51.050;3.716;2022-07-29T05:54:40;17.50;99.90
13960;DHT22;7052;51.050;3.716;2022-07-29T05:57:07;17.60;99.90
13960;DHT22;7052;51.050;3.716;2022-07-29T05:59:37;17.60;99.90
13960;DHT22;7052;51.050;3.716;2022-07-29T06:02:04;17.70;99.90
13960;DHT22;7052;51.050;3.716;2022-07-29T06:04:31;17.70;99.90
13960;DHT22;7052;51.050;3.716;2022-07-29T06:06:58;17.80;99.90
13960;DHT22;7052;51.050;3.716;2022-07-29T06:09:25;17.90;99.90
13960;DHT22;7052;51.050;3.716;2022-07-29T06:11:52;17.90;99.90
13960;DHT22;7052;51.050;3.716;2022-07-29T06:14:19;18.10;99.90
13960;DHT22;7052;51.050;3.716;2022-07-29T06:16:47;18.40;99.90
13960;DHT22;7052;51.050;3.716;2022-07-29T06:19:14;19.10;99.90
13960;DHT22;7052;51.050;3.716;2022-07-29T06:21:42;20.10;99.90
13960;DHT22;7052;51.050;3.716;2022-07-29T06:24:10;20.90;97.60
13960;DHT22;7052;51.050;3.716;2022-07-29T06:26:37;21.60;94.20
13960;DHT22;7052;51.050;3.716;2022-07-29T06:29:04;22.10;91.20
13960;DHT22;7052;51.050;3.716;2022-07-29T06:31:31;22.70;86.00
13960;DHT22;7052;51.050;3.716;2022-07-29T06:34:00;23.20;80.10
13960;DHT22;7052;51.050;3.716;2022-07-29T06:36:26;23.70;73.60
13960;DHT22;7052;51.050;3.716;2022-07-29T06:38:53;24.20;66.60
13960;DHT22;7052;51.050;3.716;2022-07-29T06:41:20;24.60;63.00
13960;DHT22;7052;51.050;3.716;2022-07-29T06:43:48;24.90;59.60
13960;DHT22;7052;51.050;3.716;2022-07-29T06:46:17;24.90;58.20
13960;DHT22;7052;51.050;3.716;2022-07-29T06:48:44;25.00;57.50
13960;DHT22;7052;51.050;3.716;2022-07-29T06:51:14;25.10;56.80
13960;DHT22;7052;51.050;3.716;2022-07-29T06:53:41;25.30;56.10
13960;DHT22;7052;51.050;3.716;2022-07-29T06:56:08;25.40;55.40
13960;DHT22;7052;51.050;3.716;2022-07-29T06:58:36;25.50;54.90
13960;DHT22;7052;51.050;3.716;2022-07-29T07:01:04;25.50;54.50
13960;DHT22;7052;51.050;3.716;2022-07-29T07:03:32;25.50;53.70
13960;DHT22;7052;51.050;3.716;2022-07-29T07:05:59;25.50;53.60
13960;DHT22;7052;51.050;3.716;2022-07-29T07:08:27;25.60;53.00
13960;DHT22;7052;51.050;3.716;2022-07-29T07:10:54;25.70;52.80
13960;DHT22;7052;51.050;3.716;2022-07-29T07:13:22;25.70;52.30
13960;DHT22;7052;51.050;3.716;2022-07-29T07:15:50;25.80;52.00
13960;DHT22;7052;51.050;3.716;2022-07-29T07:18:18;25.80;51.80
13960;DHT22;7052;51.050;3.716;2022-07-29T07:20:45;25.70;52.10
13960;DHT22;7052;51.050;3.716;2022-07-29T07:23:11;25.70;51.80
13960;DHT22;7052;51.050;3.716;2022-07-29T07:25:40;25.70;51.50
13960;DHT22;7052;51.050;3.716;2022-07-29T07:28:07;25.70;51.70
13960;DHT22;7052;51.050;3.716;2022-07-29T07:30:34;25.70;51.40
13960;DHT22;7052;51.050;3.716;2022-07-29T07:33:01;25.50;51.60
13960;DHT22;7052;51.050;3.716;2022-07-29T07:35:28;25.10;51.70
13960;DHT22;7052;51.050;3.716;2022-07-29T07:37:55;24.90;52.80
13960;DHT22;7052;51.050;3.716;2022-07-29T07:40:22;24.90;52.60
13960;DHT22;7052;51.050;3.716;2022-07-29T07:42:50;25.00;52.80
13960;DHT22;7052;51.050;3.716;2022-07-29T07:45:17;25.00;53.20
13960;DHT22;7052;51.050;3.716;2022-07-29T07:47:44;25.00;53.00
13960;DHT22;7052;51.050;3.716;2022-07-29T07:50:12;25.00;52.80
13960;DHT22;7052;51.050;3.716;2022-07-29T07:52:46;24.90;53.10
13960;DHT22;7052;51.050;3.716;2022-07-29T07:55:13;24.70;53.60
13960;DHT22;7052;51.050;3.716;2022-07-29T07:57:40;24.50;54.10
13960;DHT22;7052;51.050;3.716;2022-07-29T08:00:10;24.50;54.30
13960;DHT22;7052;51.050;3.716;2022-07-29T08:02:37;24.40;54.50
13960;DHT22;7052;51.050;3.716;2022-07-29T08:05:05;24.20;55.00
13960;DHT22;7052;51.050;3.716;2022-07-29T08:07:32;23.90;56.50
13960;DHT22;7052;51.050;3.716;2022-07-29T08:10:00;23.70;57.90
13960;DHT22;7052;51.050;3.716;2022-07-29T08:12:27;23.50;59.30
13960;DHT22;7052;51.050;3.716;2022-07-29T08:14:54;23.40;60.90
13960;DHT22;7052;51.050;3.716;2022-07-29T08:17:22;23.30;61.80
13960;DHT22;7052;51.050;3.716;2022-07-29T08:19:49;23.20;63.20
13960;DHT22;7052;51.050;3.716;2022-07-29T08:22:16;23.20;63.10
13960;DHT22;7052;51.050;3.716;2022-07-29T08:24:43;23.20;62.30
13960;DHT22;7052;51.050;3.716;2022-07-29T08:27:12;23.10;62.60
13960;DHT22;7052;51.050;3.716;2022-07-29T08:29:39;23.10;62.70
13960;DHT22;7052;51.050;3.716;2022-07-29T08:32:06;23.00;62.60
13960;DHT22;7052;51.050;3.716;2022-07-29T08:34:34;23.00;62.80
13960;DHT22;7052;51.050;3.716;2022-07-29T08:37:02;22.90;62.30
13960;DHT22;7052;51.050;3.716;2022-07-29T08:39:29;22.90;61.50
13960;DHT22;7052;51.050;3.716;2022-07-29T08:41:56;22.80;61.90
13960;DHT22;7052;51.050;3.716;2022-07-29T08:44:23;22.90;63.10
13960;DHT22;7052;51.050;3.716;2022-07-29T08:46:50;22.90;63.50
13960;DHT22;7052;51.050;3.716;2022-07-29T08:49:17;23.00;62.80
13960;DHT22;7052;51.050;3.716;2022-07-29T08:51:45;23.00;62.70
13960;DHT22;7052;51.050;3.716;2022-07-29T08:54:17;23.00;63.70
13960;DHT22;7052;51.050;3.716;2022-07-29T08:56:45;23.00;63.50
13960;DHT22;7052;51.050;3.716;2022-07-29T08:59:16;23.10;61.60
13960;DHT22;7052;51.050;3.716;2022-07-29T09:01:45;23.00;63.00
13960;DHT22;7052;51.050;3.716;2022-07-29T09:04:13;23.10;63.40
13960;DHT22;7052;51.050;3.716;2022-07-29T09:06:46;23.20;62.70
13960;DHT22;7052;51.050;3.716;2022-07-29T09:09:14;23.30;61.60
13960;DHT22;7052;51.050;3.716;2022-07-29T09:11:41;23.40;61.00
13960;DHT22;7052;51.050;3.716;2022-07-29T09:14:12;23.50;60.80
13960;DHT22;7052;51.050;3.716;2022-07-29T09:16:55;23.60;61.00
13960;DHT22;7052;51.050;3.716;2022-07-29T09:19:24;23.70;60.10
13960;DHT22;7052;51.050;3.716;2022-07-29T09:21:53;23.70;60.00
13960;DHT22;7052;51.050;3.716;2022-07-29T09:24:36;23.70;59.50
13960;DHT22;7052;51.050;3.716;2022-07-29T09:27:10;23.70;60.10
13960;DHT22;7052;51.050;3.716;2022-07-29T09:29:37;23.80;59.50
13960;DHT22;7052;51.050;3.716;2022-07-29T09:32:08;23.90;58.60
13960;DHT22;7052;51.050;3.716;2022-07-29T09:34:36;23.90;58.00
13960;DHT22;7052;51.050;3.716;2022-07-29T09:37:05;24.00;58.20
13960;DHT22;7052;51.050;3.716;2022-07-29T09:39:34;24.00;57.90
13960;DHT22;7052;51.050;3.716;2022-07-29T09:42:04;24.00;57.40
13960;DHT22;7052;51.050;3.716;2022-07-29T09:44:42;24.10;55.60
13960;DHT22;7052;51.050;3.716;2022-07-29T09:47:09;24.00;55.00
13960;DHT22;7052;51.050;3.716;2022-07-29T09:49:51;24.00;54.70
13960;DHT22;7052;51.050;3.716;2022-07-29T09:52:20;24.10;54.40
13960;DHT22;7052;51.050;3.716;2022-07-29T09:54:47;24.20;53.90
13960;DHT22;7052;51.050;3.716;2022-07-29T09:57:25;24.20;53.80
13960;DHT22;7052;51.050;3.716;2022-07-29T09:59:56;24.30;53.80
13960;DHT22;7052;51.050;3.716;2022-07-29T10:02:28;24.30;54.00
13960;DHT22;7052;51.050;3.716;2022-07-29T10:04:55;24.40;53.50
13960;DHT22;7052;51.050;3.716;2022-07-29T10:07:24;24.60;52.90
13960;DHT22;7052;51.050;3.716;2022-07-29T10:09:53;24.70;52.60
13960;DHT22;7052;51.050;3.716;2022-07-29T10:12:21;24.80;52.20
13960;DHT22;7052;51.050;3.716;2022-07-29T10:14:48;24.90;51.60
13960;DHT22;7052;51.050;3.716;2022-07-29T10:17:16;24.90;51.40
13960;DHT22;7052;51.050;3.716;2022-07-29T10:19:44;25.00;51.50
13960;DHT22;7052;51.050;3.716;2022-07-29T10:22:11;24.90;51.20
13960;DHT22;7052;51.050;3.716;2022-07-29T10:24:39;24.90;51.30
13960;DHT22;7052;51.050;3.716;2022-07-29T10:27:08;25.00;51.20
13960;DHT22;7052;51.050;3.716;2022-07-29T10:29:35;25.20;50.40
13960;DHT22;7052;51.050;3.716;2022-07-29T10:35:09;25.20;49.00
13960;DHT22;7052;51.050;3.716;2022-07-29T10:40:41;25.20;48.10
13960;DHT22;7052;51.050;3.716;2022-07-29T10:43:32;25.30;47.70
13960;DHT22;7052;51.050;3.716;2022-07-29T10:46:02;25.50;47.10
13960;DHT22;7052;51.050;3.716;2022-07-29T10:48:29;25.70;46.60
13960;DHT22;7052;51.050;3.716;2022-07-29T10:50:58;25.80;45.90
13960;DHT22;7052;51.050;3.716;2022-07-29T10:53:47;25.80;46.70
13960;DHT22;7052;51.050;3.716;2022-07-29T10:56:26;25.70;45.70
13960;DHT22;7052;51.050;3.716;2022-07-29T10:59:24;25.80;46.20
13960;DHT22;7052;51.050;3.716;2022-07-29T11:01:54;26.00;45.40
13960;DHT22;7052;51.050;3.716;2022-07-29T11:04:59;26.10;45.00
13960;DHT22;7052;51.050;3.716;2022-07-29T11:07:27;26.20;45.00
13960;DHT22;7052;51.050;3.716;2022-07-29T11:10:25;26.20;44.40
13960;DHT22;7052;51.050;3.716;2022-07-29T11:12:54;26.30;44.00
13960;DHT22;7052;51.050;3.716;2022-07-29T11:15:21;26.30;43.50
13960;DHT22;7052;51.050;3.716;2022-07-29T11:18:08;26.10;43.40
13960;DHT22;7052;51.050;3.716;2022-07-29T11:20:39;25.90;43.40
13960;DHT22;7052;51.050;3.716;2022-07-29T11:23:21;25.80;43.20
13960;DHT22;7052;51.050;3.716;2022-07-29T11:26:14;25.70;44.20
13960;DHT22;7052;51.050;3.716;2022-07-29T11:28:54;25.70;44.50
13960;DHT22;7052;51.050;3.716;2022-07-29T11:31:33;25.70;44.60
13960;DHT22;7052;51.050;3.716;2022-07-29T11:34:16;25.60;44.70
13960;DHT22;7052;51.050;3.716;2022-07-29T11:37:16;25.50;45.60
13960;DHT22;7052;51.050;3.716;2022-07-29T11:39:45;25.50;45.90
13960;DHT22;7052;51.050;3.716;2022-07-29T11:42:41;25.40;45.70
13960;DHT22;7052;51.050;3.716;2022-07-29T11:45:13;25.40;45.70
13960;DHT22;7052;51.050;3.716;2022-07-29T11:47:47;25.40;45.90
13960;DHT22;7052;51.050;3.716;2022-07-29T11:50:16;25.40;46.00
13960;DHT22;7052;51.050;3.716;2022-07-29T11:52:44;25.40;45.80
13960;DHT22;7052;51.050;3.716;2022-07-29T11:55:13;25.40;46.20
13960;DHT22;7052;51.050;3.716;2022-07-29T11:57:47;25.60;45.90
13960;DHT22;7052;51.050;3.716;2022-07-29T12:00:25;25.90;46.20
13960;DHT22;7052;51.050;3.716;2022-07-29T12:02:52;26.20;45.00
13960;DHT22;7052;51.050;3.716;2022-07-29T12:05:20;26.50;44.40
13960;DHT22;7052;51.050;3.716;2022-07-29T12:07:48;26.80;43.20
13960;DHT22;7052;51.050;3.716;2022-07-29T12:10:15;27.10;42.80
13960;DHT22;7052;51.050;3.716;2022-07-29T12:12:42;27.20;42.40
13960;DHT22;7052;51.050;3.716;2022-07-29T12:15:16;27.40;42.10
13960;DHT22;7052;51.050;3.716;2022-07-29T12:17:47;27.50;41.90
13960;DHT22;7052;51.050;3.716;2022-07-29T12:20:22;27.50;41.80
13960;DHT22;7052;51.050;3.716;2022-07-29T12:22:49;27.40;41.80
13960;DHT22;7052;51.050;3.716;2022-07-29T12:25:19;27.20;42.20
13960;DHT22;7052;51.050;3.716;2022-07-29T12:27:46;26.80;42.50
13960;DHT22;7052;51.050;3.716;2022-07-29T12:30:15;26.60;42.90
13960;DHT22;7052;51.050;3.716;2022-07-29T12:32:49;26.50;43.00
13960;DHT22;7052;51.050;3.716;2022-07-29T12:35:19;26.70;42.80
13960;DHT22;7052;51.050;3.716;2022-07-29T12:37:47;26.80;42.50
13960;DHT22;7052;51.050;3.716;2022-07-29T12:40:17;27.10;42.10
13960;DHT22;7052;51.050;3.716;2022-07-29T12:43:05;27.30;41.50
13960;DHT22;7052;51.050;3.716;2022-07-29T12:45:33;27.50;41.10
13960;DHT22;7052;51.050;3.716;2022-07-29T12:48:01;27.70;40.90
13960;DHT22;7052;51.050;3.716;2022-07-29T12:50:28;27.80;40.40
13960;DHT22;7052;51.050;3.716;2022-07-29T12:53:08;28.00;39.80
13960;DHT22;7052;51.050;3.716;2022-07-29T12:55:40;28.10;39.50
13960;DHT22;7052;51.050;3.716;2022-07-29T12:58:07;28.20;39.70
13960;DHT22;7052;51.050;3.716;2022-07-29T13:00:34;28.40;40.10
13960;DHT22;7052;51.050;3.716;2022-07-29T13:03:02;28.10;41.20
13960;DHT22;7052;51.050;3.716;2022-07-29T13:05:39;28.10;41.40
13960;DHT22;7052;51.050;3.716;2022-07-29T13:08:11;28.20;41.60
13960;DHT22;7052;51.050;3.716;2022-07-29T13:10:38;28.40;41.70
13960;DHT22;7052;51.050;3.716;2022-07-29T13:13:05;28.60;41.10
13960;DHT22;7052;51.050;3.716;2022-07-29T13:15:34;28.70;40.80
13960;DHT22;7052;51.050;3.716;2022-07-29T13:18:03;28.70;40.50
13960;DHT22;7052;51.050;3.716;2022-07-29T13:20:31;28.70;41.10
13960;DHT22;7052;51.050;3.716;2022-07-29T13:22:59;28.50;41.80
13960;DHT22;7052;51.050;3.716;2022-07-29T13:25:28;28.40;41.60
13960;DHT22;7052;51.050;3.716;2022-07-29T13:27:55;28.30;41.60
13960;DHT22;7052;51.050;3.716;2022-07-29T13:30:23;28.30;41.40
13960;DHT22;7052;51.050;3.716;2022-07-29T13:32:50;28.00;41.80
13960;DHT22;7052;51.050;3.716;2022-07-29T13:35:19;27.60;42.60
13960;DHT22;7052;51.050;3.716;2022-07-29T13:37:46;27.50;43.30
13960;DHT22;7052;51.050;3.716;2022-07-29T13:40:13;27.60;43.10
13960;DHT22;7052;51.050;3.716;2022-07-29T13:42:40;27.70;42.90
13960;DHT22;7052;51.050;3.716;2022-07-29T13:45:08;27.60;42.20
13960;DHT22;7052;51.050;3.716;2022-07-29T13:47:36;27.50;42.00
13960;DHT22;7052;51.050;3.716;2022-07-29T13:50:05;27.30;42.20
13960;DHT22;7052;51.050;3.716;2022-07-29T13:52:34;27.10;42.50
13960;DHT22;7052;51.050;3.716;2022-07-29T13:55:01;26.90;43.10
13960;DHT22;7052;51.050;3.716;2022-07-29T13:57:28;26.60;44.10
13960;DHT22;7052;51.050;3.716;2022-07-29T13:59:56;26.50;44.00
13960;DHT22;7052;51.050;3.716;2022-07-29T14:02:23;26.50;44.10
13960;DHT22;7052;51.050;3.716;2022-07-29T14:04:50;26.70;44.10
13960;DHT22;7052;51.050;3.716;2022-07-29T14:07:17;26.90;44.10
13960;DHT22;7052;51.050;3.716;2022-07-29T14:09:45;27.20;43.80
13960;DHT22;7052;51.050;3.716;2022-07-29T14:12:12;27.40;43.40
13960;DHT22;7052;51.050;3.716;2022-07-29T14:14:39;27.60;42.80
13960;DHT22;7052;51.050;3.716;2022-07-29T14:17:07;27.70;42.80
13960;DHT22;7052;51.050;3.716;2022-07-29T14:19:34;27.80;42.10
13960;DHT22;7052;51.050;3.716;2022-07-29T14:22:03;27.80;42.10
13960;DHT22;7052;51.050;3.716;2022-07-29T14:24:31;27.80;41.80
13960;DHT22;7052;51.050;3.716;2022-07-29T14:26:59;27.80;42.00
13960;DHT22;7052;51.050;3.716;2022-07-29T14:29:26;27.70;41.70
13960;DHT22;7052;51.050;3.716;2022-07-29T14:31:53;27.60;41.90
13960;DHT22;7052;51.050;3.716;2022-07-29T14:34:20;27.30;42.40
13960;DHT22;7052;51.050;3.716;2022-07-29T14:36:47;27.10;42.50
13960;DHT22;7052;51.050;3.716;2022-07-29T14:39:13;26.90;42.80
13960;DHT22;7052;51.050;3.716;2022-07-29T14:41:42;26.70;43.40
13960;DHT22;7052;51.050;3.716;2022-07-29T14:44:10;26.70;43.50
13960;DHT22;7052;51.050;3.716;2022-07-29T14:46:37;26.70;43.30
13960;DHT22;7052;51.050;3.716;2022-07-29T14:49:04;26.70;43.70
13960;DHT22;7052;51.050;3.716;2022-07-29T14:51:32;26.80;43.60
13960;DHT22;7052;51.050;3.716;2022-07-29T14:53:59;26.90;43.20
13960;DHT22;7052;51.050;3.716;2022-07-29T14:56:26;26.90;43.30
13960;DHT22;7052;51.050;3.716;2022-07-29T14:58:55;26.90;43.40
13960;DHT22;7052;51.050;3.716;2022-07-29T15:01:24;27.00;43.40
13960;DHT22;7052;51.050;3.716;2022-07-29T15:03:51;26.90;43.30
13960;DHT22;7052;51.050;3.716;2022-07-29T15:06:18;26.90;43.30
13960;DHT22;7052;51.050;3.716;2022-07-29T15:08:46;27.00;43.40
13960;DHT22;7052;51.050;3.716;2022-07-29T15:11:13;27.10;43.20
13960;DHT22;7052;51.050;3.716;2022-07-29T15:13:39;27.10;43.50
13960;DHT22;7052;51.050;3.716;2022-07-29T15:16:07;27.10;43.40
13960;DHT22;7052;51.050;3.716;2022-07-29T15:18:36;27.20;43.20
13960;DHT22;7052;51.050;3.716;2022-07-29T15:21:04;27.20;43.30
13960;DHT22;7052;51.050;3.716;2022-07-29T15:23:32;27.20;43.30
13960;DHT22;7052;51.050;3.716;2022-07-29T15:26:01;27.20;43.30
13960;DHT22;7052;51.050;3.716;2022-07-29T15:28:27;27.10;43.40
13960;DHT22;7052;51.050;3.716;2022-07-29T15:30:54;27.10;43.30
13960;DHT22;7052;51.050;3.716;2022-07-29T15:33:21;27.10;43.60
13960;DHT22;7052;51.050;3.716;2022-07-29T15:35:50;27.00;43.90
13960;DHT22;7052;51.050;3.716;2022-07-29T15:38:17;27.10;44.20
13960;DHT22;7052;51.050;3.716;2022-07-29T15:40:44;27.10;44.10
13960;DHT22;7052;51.050;3.716;2022-07-29T15:43:12;26.90;44.30
13960;DHT22;7052;51.050;3.716;2022-07-29T15:45:39;26.90;44.50
13960;DHT22;7052;51.050;3.716;2022-07-29T15:48:08;26.80;44.70
13960;DHT22;7052;51.050;3.716;2022-07-29T15:50:35;26.80;44.50
13960;DHT22;7052;51.050;3.716;2022-07-29T15:53:03;26.80;44.30
13960;DHT22;7052;51.050;3.716;2022-07-29T15:55:30;26.70;44.50
13960;DHT22;7052;51.050;3.716;2022-07-29T15:57:57;26.80;44.60
13960;DHT22;7052;51.050;3.716;2022-07-29T16:00:24;26.70;44.50
13960;DHT22;7052;51.050;3.716;2022-07-29T16:02:51;26.60;44.70
13960;DHT22;7052;51.050;3.716;2022-07-29T16:05:17;26.60;44.50